Morehead City, NC (28557)

9:40 AM EST on December 10, 2016 (GMT -0500)
North shore 1 | | Change Station

Elev 3 ft 34.71 °N, 76.74 °W | Updated 1 minute ago

Clear
Clear
36.7 °F
Feels Like 33 °F
N
5.0
Wind Variable Wind from NW
Gusts 12.0 mph

Today
High -- | Low -- °F
--% Chance of Precip.
Yesterday
High -- | Low -- °F
Precip. -- in
Pressure 30.55 in
Visibility 10.0 miles
Clouds Clear
Windchill 33 °F
Dew Point 30 °F
Humidity 77%
Rainfall 0.00 in
Snow Depth Not available.
7:03 AM 4:56 PM
Waxing Gibbous, 84% visible
METAR KMRH 101358Z AUTO 01006KT 10SM CLR 03/M03 A3054 RMK AO2 SLP343 T00281028 TSNO
Pressure 30.55 in
Visibility 10.0 miles
Clouds Clear
Windchill 33 °F
Dew Point 30 °F
Humidity 77%
Rainfall 0.00 in
Snow Depth Not available.
7:03 AM 4:56 PM
Waxing Gibbous, 84% visible
METAR KMRH 101358Z AUTO 01006KT 10SM CLR 03/M03 A3054 RMK AO2 SLP343 T00281028 TSNO

10-Day Weather Forecast

Almanac

Astronomy

Dec. 10, 2016 Rise Set
Actual Time
Civil Twilight
Nautical Twilight
Astronomical Twilight
Moon
Length of Visible Light
Length of Day
Tomorrow will be .
, % of the Moon is Illuminated

Today's Extremes

State Highs State Lows

Community

WunderPhotos

Upload Photos

1,956,549 photos uploaded!

WunderBlog® & News

Nearby

Air Quality

  Air Quality AQ Index Pollutant
Not available.

Snow Depth

Station Depth Elevation

Earthquake Activity

City Distance Mag. Time & Date
Minimum magnitude displayed is 2.5.

Coastal Water Temperatures

Place Temperature

Stations

Nearby Weather Stations

Station Location Temp. Windchill Dew Point Humidity Wind Precip. Elev Updated Type
                   

Watches & Warnings

There are currently no watches in effect.